createdAt,value
2023-03-29T00:00:14.488Z,0.98
2023-03-29T00:02:43.196Z,1.06
2023-03-29T00:05:12.417Z,1.07
2023-03-29T00:07:41.194Z,1.04
2023-03-29T00:10:11.403Z,1.05
2023-03-29T00:12:42.748Z,1.06
2023-03-29T00:15:11.634Z,0.95
2023-03-29T00:17:39.787Z,0.94
2023-03-29T00:20:10.294Z,0.70
2023-03-29T00:22:39.891Z,0.84
2023-03-29T00:25:08.527Z,1.01
2023-03-29T00:27:36.901Z,0.96
2023-03-29T00:30:08.676Z,0.86
2023-03-29T00:32:36.633Z,0.80
2023-03-29T00:35:05.331Z,0.78
2023-03-29T00:37:33.861Z,0.85
2023-03-29T00:40:02.123Z,0.95
2023-03-29T00:42:30.084Z,0.93
2023-03-29T00:45:01.839Z,0.97
2023-03-29T00:47:36.154Z,0.69
2023-03-29T00:50:06.294Z,0.77
2023-03-29T00:52:35.814Z,0.71
2023-03-29T00:55:10.227Z,0.76
2023-03-29T00:57:38.987Z,0.64
2023-03-29T01:00:10.227Z,0.70
2023-03-29T01:02:41.084Z,0.48
2023-03-29T01:05:14.468Z,0.68
2023-03-29T01:07:48.160Z,0.76
2023-03-29T01:10:21.648Z,0.69
2023-03-29T01:12:54.478Z,0.51
2023-03-29T01:15:27.298Z,0.52
2023-03-29T01:17:58.333Z,0.53
2023-03-29T01:20:39.374Z,0.67
2023-03-29T01:23:26.955Z,0.67
2023-03-29T01:26:01.001Z,0.64
2023-03-29T01:28:34.724Z,0.81
2023-03-29T01:31:08.450Z,0.46
2023-03-29T01:33:41.615Z,0.64
2023-03-29T01:36:17.497Z,0.76
2023-03-29T01:38:50.702Z,0.54
2023-03-29T01:41:18.786Z,0.44
2023-03-29T01:43:52.576Z,0.55
2023-03-29T01:46:31.677Z,0.57
2023-03-29T01:49:03.958Z,0.61
2023-03-29T01:51:38.541Z,0.30
2023-03-29T01:54:10.803Z,0.56
2023-03-29T01:56:41.856Z,0.47
2023-03-29T01:59:14.724Z,0.35
2023-03-29T02:01:49.269Z,0.40
2023-03-29T02:04:21.187Z,0.11
2023-03-29T02:06:54.246Z,-0.01
2023-03-29T02:09:23.406Z,0.09
2023-03-29T02:11:53.004Z,0.13
2023-03-29T02:14:22.483Z,0.04
2023-03-29T02:16:50.438Z,0.10
2023-03-29T02:19:19.661Z,0.09
2023-03-29T02:21:57.103Z,0.05
2023-03-29T02:24:26.569Z,-0.04
2023-03-29T02:26:54.512Z,-0.03
2023-03-29T02:29:23.867Z,0.02
2023-03-29T02:31:56.483Z,0.02
2023-03-29T02:34:29.933Z,0.12
2023-03-29T02:37:01.281Z,0.08
2023-03-29T02:39:32.274Z,0.10
2023-03-29T02:42:01.131Z,0.20
2023-03-29T02:44:33.273Z,0.19
2023-03-29T02:47:07.776Z,0.26
2023-03-29T02:49:35.938Z,0.32
2023-03-29T02:52:09.821Z,0.28
2023-03-29T02:54:43.605Z,0.26
2023-03-29T02:57:12.366Z,0.30
2023-03-29T02:59:44.077Z,0.36
2023-03-29T03:02:13.776Z,0.30
2023-03-29T03:04:41.746Z,-0.40
2023-03-29T03:07:09.852Z,0.20
2023-03-29T03:09:37.795Z,0.21
2023-03-29T03:12:06.338Z,0.11
2023-03-29T03:14:34.456Z,0.06
2023-03-29T03:17:04.919Z,0.03
2023-03-29T03:19:33.122Z,0.04
2023-03-29T03:22:01.056Z,0.10
2023-03-29T03:24:29.206Z,0.08
2023-03-29T03:26:58.166Z,-0.22
2023-03-29T03:29:26.210Z,0.05
2023-03-29T03:31:54.434Z,0.17
2023-03-29T03:34:24.201Z,0.17
2023-03-29T03:36:52.119Z,0.17
2023-03-29T03:39:20.116Z,0.20
2023-03-29T03:41:48.119Z,0.19
2023-03-29T03:44:16.633Z,0.22
2023-03-29T03:46:44.577Z,0.35
2023-03-29T03:49:12.532Z,0.22
2023-03-29T03:51:42.333Z,0.05
2023-03-29T03:54:10.410Z,-0.08
2023-03-29T03:56:38.500Z,0.06
2023-03-29T03:59:07.081Z,-0.25
2023-03-29T04:01:35.977Z,-0.18
2023-03-29T04:04:04.636Z,-0.10
2023-03-29T04:06:32.667Z,-0.18
2023-03-29T04:09:02.440Z,-0.04
2023-03-29T04:11:30.380Z,-0.11
2023-03-29T04:13:58.320Z,-0.39
2023-03-29T04:16:26.597Z,-0.13
2023-03-29T04:18:54.651Z,-0.20
2023-03-29T04:21:22.597Z,-0.14
2023-03-29T04:23:50.558Z,-0.07
2023-03-29T04:26:19.978Z,0.02
2023-03-29T04:28:47.951Z,0.15
2023-03-29T04:31:16.973Z,0.16
2023-03-29T04:33:46.793Z,0.07
2023-03-29T04:36:15.996Z,0.22
2023-03-29T04:38:47.437Z,0.25
2023-03-29T04:41:16.436Z,0.30
2023-03-29T04:43:46.705Z,0.23
2023-03-29T04:46:14.961Z,0.35
2023-03-29T04:48:43.615Z,0.30
2023-03-29T04:51:11.653Z,0.36
2023-03-29T04:53:39.591Z,0.43
2023-03-29T04:56:08.434Z,0.38
2023-03-29T04:58:36.427Z,0.49
2023-03-29T05:01:06.280Z,0.54
2023-03-29T05:03:34.456Z,0.42
2023-03-29T05:06:06.972Z,0.41
2023-03-29T05:08:35.336Z,0.46
2023-03-29T05:11:03.943Z,0.44
2023-03-29T05:13:32.021Z,0.46
2023-03-29T05:16:00.743Z,0.65
2023-03-29T05:18:31.046Z,0.85
2023-03-29T05:20:59.593Z,1.15
2023-03-29T05:23:29.033Z,1.29
2023-03-29T05:25:57.301Z,1.42
2023-03-29T05:28:25.213Z,1.58
2023-03-29T05:31:01.226Z,1.74
2023-03-29T05:33:31.268Z,1.84
2023-03-29T05:36:03.580Z,1.96
2023-03-29T05:38:32.826Z,2.23
2023-03-29T05:41:01.565Z,2.49
2023-03-29T05:43:29.916Z,2.57
2023-03-29T05:45:57.964Z,2.68
2023-03-29T05:48:27.051Z,2.69
2023-03-29T05:50:57.843Z,3.11
2023-03-29T05:53:27.583Z,3.22
2023-03-29T05:55:56.158Z,3.39
2023-03-29T05:58:26.830Z,3.51
2023-03-29T06:00:54.861Z,3.30
2023-03-29T06:03:25.605Z,3.64
2023-03-29T06:06:00.502Z,3.71
2023-03-29T06:08:28.657Z,3.81
2023-03-29T06:11:02.427Z,3.77
2023-03-29T06:13:33.571Z,4.09
2023-03-29T06:16:02.171Z,4.36
2023-03-29T06:18:30.103Z,4.56
2023-03-29T06:20:59.810Z,4.61
2023-03-29T06:23:28.166Z,5.05
2023-03-29T06:25:56.455Z,5.17
2023-03-29T06:28:25.060Z,4.99
2023-03-29T06:30:56.385Z,5.12
2023-03-29T06:33:25.432Z,5.18
2023-03-29T06:35:53.755Z,5.31
2023-03-29T06:38:23.388Z,5.58
2023-03-29T06:40:52.798Z,5.88
2023-03-29T06:43:20.944Z,5.92
2023-03-29T06:45:48.861Z,5.47
2023-03-29T06:48:17.416Z,5.82
2023-03-29T06:50:46.299Z,5.64
2023-03-29T06:53:15.724Z,6.03
2023-03-29T06:55:45.764Z,6.27
2023-03-29T06:58:13.960Z,6.27
2023-03-29T07:00:42.330Z,5.94
2023-03-29T07:03:13.494Z,5.99
2023-03-29T07:05:42.341Z,5.87
2023-03-29T07:08:16.565Z,6.36
2023-03-29T07:10:49.033Z,6.69
2023-03-29T07:13:17.349Z,6.86
2023-03-29T07:15:45.888Z,6.79
2023-03-29T07:18:13.959Z,6.95
2023-03-29T07:20:42.646Z,6.45
2023-03-29T07:23:11.493Z,6.74
2023-03-29T07:25:41.120Z,6.48
2023-03-29T07:28:11.274Z,6.14
2023-03-29T07:30:39.227Z,6.48
2023-03-29T07:33:07.200Z,6.88
2023-03-29T07:35:36.401Z,7.58
2023-03-29T07:38:04.467Z,7.64
2023-03-29T07:40:32.627Z,7.35
2023-03-29T07:43:00.654Z,7.78
2023-03-29T07:45:30.213Z,8.12
2023-03-29T07:47:59.806Z,8.11
2023-03-29T07:50:28.979Z,7.76
2023-03-29T07:52:57.684Z,7.71
2023-03-29T07:55:25.759Z,8.00
2023-03-29T07:57:54.102Z,8.01
2023-03-29T08:00:25.045Z,7.45
2023-03-29T08:02:54.986Z,7.44
2023-03-29T08:05:37.770Z,7.26
2023-03-29T08:08:09.766Z,6.49
2023-03-29T08:10:39.471Z,6.02
2023-03-29T08:13:11.070Z,6.37
2023-03-29T08:15:40.226Z,6.81
2023-03-29T08:18:09.738Z,7.34
2023-03-29T08:20:37.758Z,8.04
2023-03-29T08:23:06.502Z,8.29
2023-03-29T08:25:35.376Z,8.18
2023-03-29T08:28:03.563Z,7.25
2023-03-29T08:30:31.675Z,6.73
2023-03-29T08:32:59.760Z,6.36
2023-03-29T08:35:29.623Z,6.13
2023-03-29T08:37:57.561Z,6.08
2023-03-29T08:40:30.103Z,5.90
2023-03-29T08:43:12.898Z,6.56
2023-03-29T08:45:51.503Z,6.73
2023-03-29T08:48:28.534Z,7.21
2023-03-29T08:51:02.732Z,7.91
2023-03-29T08:53:33.906Z,7.94
2023-03-29T08:56:06.078Z,7.59
2023-03-29T08:58:35.799Z,7.76
2023-03-29T09:01:08.774Z,7.53
2023-03-29T09:03:41.863Z,7.46
2023-03-29T09:06:13.705Z,6.75
2023-03-29T09:08:45.183Z,6.41
2023-03-29T09:11:39.410Z,6.25
2023-03-29T09:14:25.903Z,6.44
2023-03-29T09:17:02.189Z,6.32
2023-03-29T09:19:39.015Z,6.33
2023-03-29T09:22:17.208Z,6.11
2023-03-29T09:24:59.570Z,5.88
2023-03-29T09:27:31.458Z,5.72
2023-03-29T09:30:19.067Z,5.69
2023-03-29T09:32:53.324Z,5.51
2023-03-29T09:35:23.380Z,5.58
2023-03-29T09:37:55.800Z,5.38
2023-03-29T09:40:27.861Z,5.75
2023-03-29T09:42:57.184Z,5.92
2023-03-29T09:45:25.124Z,5.93
2023-03-29T09:47:57.751Z,6.12
2023-03-29T09:50:31.912Z,6.27
2023-03-29T09:53:01.322Z,5.74
2023-03-29T09:55:32.383Z,5.11
2023-03-29T09:58:03.087Z,5.51
2023-03-29T10:00:31.036Z,5.78
2023-03-29T10:03:00.336Z,5.95
2023-03-29T10:05:32.032Z,5.85
2023-03-29T10:08:02.533Z,6.12
2023-03-29T10:10:33.119Z,6.39
2023-03-29T10:13:04.531Z,6.81
2023-03-29T10:15:32.727Z,7.27
2023-03-29T10:18:03.262Z,7.43
2023-03-29T10:20:31.823Z,7.71
2023-03-29T10:23:01.997Z,7.33
2023-03-29T10:25:33.762Z,6.93
2023-03-29T10:28:07.103Z,6.45
2023-03-29T10:30:38.685Z,6.33
2023-03-29T10:33:09.104Z,6.71
2023-03-29T10:35:41.934Z,7.12
2023-03-29T10:38:14.979Z,7.54
2023-03-29T10:40:45.790Z,6.93
2023-03-29T10:43:16.139Z,7.13
2023-03-29T10:45:44.840Z,7.87
2023-03-29T10:48:15.361Z,8.46
2023-03-29T10:50:43.946Z,8.56
2023-03-29T10:53:18.612Z,8.60
2023-03-29T10:55:55.152Z,8.02
2023-03-29T10:58:35.103Z,7.67
2023-03-29T11:01:04.029Z,7.26
2023-03-29T11:03:54.605Z,7.30
2023-03-29T11:06:29.331Z,7.52
2023-03-29T11:09:01.011Z,7.49
2023-03-29T11:12:01.090Z,7.78
2023-03-29T11:14:46.838Z,7.46
2023-03-29T11:17:28.489Z,7.92
2023-03-29T11:20:14.855Z,8.26
2023-03-29T11:22:50.411Z,8.55
2023-03-29T11:25:35.088Z,8.56
2023-03-29T11:28:11.084Z,9.10
2023-03-29T11:30:45.294Z,9.02
2023-03-29T11:33:23.173Z,8.36
2023-03-29T11:35:57.767Z,8.28
2023-03-29T11:38:32.952Z,7.88
2023-03-29T11:41:12.040Z,8.08
2023-03-29T11:43:44.054Z,8.80
2023-03-29T11:46:17.867Z,8.40
2023-03-29T11:48:50.800Z,8.23
2023-03-29T11:51:23.881Z,7.94
2023-03-29T11:53:58.043Z,7.84
2023-03-29T11:56:33.418Z,7.63
2023-03-29T11:59:07.573Z,7.42
2023-03-29T12:01:40.785Z,7.53
2023-03-29T12:04:14.952Z,7.88
2023-03-29T12:06:49.854Z,8.00
2023-03-29T12:09:26.707Z,7.49
2023-03-29T12:12:04.329Z,7.51
2023-03-29T12:14:43.970Z,7.87
2023-03-29T12:17:16.491Z,8.29
2023-03-29T12:19:50.149Z,7.89
2023-03-29T12:22:18.080Z,7.48
2023-03-29T12:24:51.174Z,7.43
2023-03-29T12:27:31.113Z,7.17
2023-03-29T12:30:19.749Z,6.96
2023-03-29T12:33:02.953Z,6.96
2023-03-29T12:35:39.573Z,6.86
2023-03-29T12:38:14.197Z,6.80
2023-03-29T12:40:44.933Z,6.88
2023-03-29T12:43:24.330Z,7.01
2023-03-29T12:45:56.227Z,7.53
2023-03-29T12:48:27.518Z,7.91
2023-03-29T12:51:01.026Z,7.80
2023-03-29T12:53:34.167Z,7.45
2023-03-29T12:56:15.427Z,7.30
2023-03-29T12:59:09.063Z,7.34
2023-03-29T13:01:38.873Z,7.31
2023-03-29T13:04:19.489Z,7.69
2023-03-29T13:07:03.124Z,8.30
2023-03-29T13:09:35.593Z,8.43
2023-03-29T13:12:20.289Z,8.24
2023-03-29T13:14:52.104Z,8.20
2023-03-29T13:17:32.674Z,8.65
2023-03-29T13:20:22.480Z,8.63
2023-03-29T13:23:02.081Z,8.19
2023-03-29T13:25:51.315Z,7.77
2023-03-29T13:28:29.456Z,7.40
2023-03-29T13:31:05.322Z,7.92
2023-03-29T13:33:59.410Z,8.25
2023-03-29T13:36:41.688Z,8.28
2023-03-29T13:39:17.940Z,8.55
2023-03-29T13:41:49.449Z,8.34
2023-03-29T13:44:30.299Z,8.56
2023-03-29T13:47:16.365Z,8.51
2023-03-29T13:49:48.621Z,8.48
2023-03-29T13:52:24.062Z,8.27
2023-03-29T13:54:57.566Z,8.16
2023-03-29T13:57:32.887Z,8.21
2023-03-29T14:00:11.654Z,8.54
2023-03-29T14:02:47.347Z,8.71
2023-03-29T14:05:20.900Z,8.59
2023-03-29T14:07:52.784Z,8.64
2023-03-29T14:10:25.687Z,8.63
2023-03-29T14:12:55.425Z,8.07
2023-03-29T14:15:26.713Z,7.98
2023-03-29T14:18:00.356Z,7.84
2023-03-29T14:20:30.541Z,7.74
2023-03-29T14:22:58.630Z,7.87
2023-03-29T14:25:27.394Z,8.15
2023-03-29T14:27:55.522Z,8.27
2023-03-29T14:30:28.415Z,8.14
2023-03-29T14:32:58.110Z,7.97
2023-03-29T14:35:33.287Z,7.83
2023-03-29T14:38:03.932Z,7.85
2023-03-29T14:40:32.650Z,7.37
2023-03-29T14:43:05.393Z,7.35
2023-03-29T14:45:33.566Z,7.29
2023-03-29T14:48:03.693Z,7.30
2023-03-29T14:50:32.448Z,7.20
2023-03-29T14:53:03.202Z,7.11
2023-03-29T14:55:31.659Z,7.11
2023-03-29T14:58:00.336Z,7.10
2023-03-29T15:00:30.270Z,6.97
2023-03-29T15:03:00.202Z,6.94
2023-03-29T15:05:38.772Z,6.95
2023-03-29T15:08:10.006Z,6.95
2023-03-29T15:10:42.348Z,6.89
2023-03-29T15:13:17.814Z,6.83
2023-03-29T15:15:46.355Z,6.93
2023-03-29T15:18:17.826Z,6.76
2023-03-29T15:20:47.444Z,6.87
2023-03-29T15:23:24.783Z,6.84
2023-03-29T15:25:56.710Z,6.82
2023-03-29T15:28:31.146Z,6.78
2023-03-29T15:33:38.266Z,6.87
2023-03-29T15:36:10.099Z,6.75
2023-03-29T15:38:44.112Z,6.72
2023-03-29T15:41:14.656Z,6.66
2023-03-29T15:43:43.160Z,6.67
2023-03-29T15:46:13.507Z,6.78
2023-03-29T15:48:42.175Z,6.73
2023-03-29T15:51:13.245Z,6.69
2023-03-29T15:53:41.363Z,6.56
2023-03-29T15:56:11.479Z,6.47
2023-03-29T15:58:39.726Z,6.53
2023-03-29T16:01:16.111Z,6.47
2023-03-29T16:03:47.084Z,6.57
2023-03-29T16:06:18.087Z,6.46
2023-03-29T16:08:46.142Z,6.51
2023-03-29T16:11:14.168Z,6.56
2023-03-29T16:13:42.194Z,6.60
2023-03-29T16:16:12.087Z,6.12
2023-03-29T16:18:40.042Z,6.03
2023-03-29T16:21:12.642Z,6.22
2023-03-29T16:23:42.978Z,6.27
2023-03-29T16:26:12.873Z,6.28
2023-03-29T16:28:41.064Z,6.26
2023-03-29T16:31:11.280Z,6.17
2023-03-29T16:33:39.269Z,5.90
2023-03-29T16:36:08.426Z,5.86
2023-03-29T16:38:36.344Z,5.92
2023-03-29T16:41:06.251Z,6.09
2023-03-29T16:43:34.220Z,5.65
2023-03-29T16:46:02.303Z,5.78
2023-03-29T16:48:30.554Z,5.81
2023-03-29T16:50:58.520Z,5.58
2023-03-29T16:53:27.091Z,5.75
2023-03-29T16:55:55.352Z,5.80
2023-03-29T16:58:26.925Z,5.87
2023-03-29T17:00:56.272Z,5.97
2023-03-29T17:03:25.261Z,6.02
2023-03-29T17:05:55.013Z,6.12
2023-03-29T17:08:23.213Z,6.10
2023-03-29T17:10:54.066Z,6.26
2023-03-29T17:13:24.075Z,6.38
2023-03-29T17:15:54.825Z,6.40
2023-03-29T17:18:23.951Z,6.21
2023-03-29T17:20:53.274Z,6.17
2023-03-29T17:23:21.316Z,5.72
2023-03-29T17:25:49.478Z,5.33
2023-03-29T17:28:17.594Z,4.76
2023-03-29T17:30:46.168Z,4.69
2023-03-29T17:33:15.724Z,4.59
2023-03-29T17:35:44.403Z,4.56
2023-03-29T17:38:12.721Z,4.72
2023-03-29T17:40:41.195Z,4.56
2023-03-29T17:43:09.152Z,4.34
2023-03-29T17:45:37.121Z,4.53
2023-03-29T17:48:06.549Z,4.68
2023-03-29T17:50:36.180Z,4.64
2023-03-29T17:53:04.118Z,4.74
2023-03-29T17:55:32.054Z,4.73
2023-03-29T17:57:59.969Z,4.38
2023-03-29T18:00:28.290Z,4.33
2023-03-29T18:02:56.545Z,3.91
2023-03-29T18:05:24.606Z,4.02
2023-03-29T18:07:53.917Z,4.22
2023-03-29T18:10:21.841Z,4.18
2023-03-29T18:12:50.159Z,4.15
2023-03-29T18:15:18.295Z,4.18
2023-03-29T18:17:46.486Z,3.98
2023-03-29T18:20:14.709Z,3.91
2023-03-29T18:22:42.868Z,3.75
2023-03-29T18:25:12.378Z,4.00
2023-03-29T18:27:41.005Z,3.76
2023-03-29T18:30:09.887Z,3.84
2023-03-29T18:32:37.926Z,3.64
2023-03-29T18:35:06.849Z,3.64
2023-03-29T18:37:34.847Z,3.56
2023-03-29T18:40:04.396Z,3.41
2023-03-29T18:42:33.699Z,3.40
2023-03-29T18:45:01.610Z,3.36
2023-03-29T18:47:29.549Z,3.43
2023-03-29T18:49:57.793Z,3.33
2023-03-29T18:52:25.814Z,3.21
2023-03-29T18:54:53.784Z,3.19
2023-03-29T18:57:21.781Z,3.27
2023-03-29T18:59:51.217Z,3.34
2023-03-29T19:02:19.309Z,3.50
2023-03-29T19:04:47.395Z,3.53
2023-03-29T19:07:15.333Z,3.30
2023-03-29T19:09:43.224Z,3.28
2023-03-29T19:12:11.290Z,3.18
2023-03-29T19:14:39.165Z,3.00
2023-03-29T19:17:08.557Z,3.10
2023-03-29T19:19:37.827Z,2.97
2023-03-29T19:22:05.847Z,2.67
2023-03-29T19:24:33.825Z,2.94
2023-03-29T19:27:01.845Z,2.93
2023-03-29T19:29:29.811Z,2.81
2023-03-29T19:31:57.983Z,2.65
2023-03-29T19:34:28.198Z,2.54
2023-03-29T19:36:56.656Z,2.35
2023-03-29T19:39:26.697Z,2.40
2023-03-29T19:41:55.420Z,2.06
2023-03-29T19:44:24.443Z,2.27
2023-03-29T19:46:52.812Z,2.26
2023-03-29T19:49:20.822Z,1.83
2023-03-29T19:51:54.484Z,1.54
2023-03-29T19:54:24.107Z,1.71
2023-03-29T19:56:52.831Z,1.37
2023-03-29T19:59:20.875Z,1.63
2023-03-29T20:01:51.815Z,1.65
2023-03-29T20:04:20.948Z,1.19
2023-03-29T20:06:50.577Z,1.10
2023-03-29T20:09:18.719Z,1.08
2023-03-29T20:11:47.586Z,0.98
2023-03-29T20:14:15.537Z,1.28
2023-03-29T20:16:44.830Z,1.27
2023-03-29T20:19:14.215Z,1.18
2023-03-29T20:21:42.224Z,1.07
2023-03-29T20:24:12.196Z,1.17
2023-03-29T20:26:40.168Z,1.05
2023-03-29T20:29:08.115Z,0.76
2023-03-29T20:31:36.093Z,1.05
2023-03-29T20:34:04.023Z,1.38
2023-03-29T20:36:32.050Z,1.06
2023-03-29T20:39:01.303Z,1.15
2023-03-29T20:41:31.510Z,1.14
2023-03-29T20:44:00.078Z,0.87
2023-03-29T20:46:33.443Z,1.00
2023-03-29T20:49:02.025Z,0.81
2023-03-29T20:51:32.190Z,0.76
2023-03-29T20:54:04.612Z,0.63
2023-03-29T20:56:35.689Z,0.62
2023-03-29T20:59:04.136Z,0.73
2023-03-29T21:01:32.172Z,0.64
2023-03-29T21:04:00.190Z,0.63
2023-03-29T21:06:28.175Z,0.76
2023-03-29T21:08:56.081Z,0.82
2023-03-29T21:11:23.966Z,0.82
2023-03-29T21:13:53.970Z,0.77
2023-03-29T21:16:22.130Z,0.69
2023-03-29T21:18:50.064Z,0.79
2023-03-29T21:21:18.172Z,0.88
2023-03-29T21:23:46.147Z,0.67
2023-03-29T21:26:14.059Z,0.22
2023-03-29T21:28:42.488Z,0.70
2023-03-29T21:31:11.780Z,0.51
2023-03-29T21:33:39.747Z,0.45
2023-03-29T21:36:08.342Z,0.24
2023-03-29T21:38:36.788Z,0.10
2023-03-29T21:41:04.846Z,0.15
2023-03-29T21:43:32.914Z,-0.09
2023-03-29T21:46:01.054Z,0.16
2023-03-29T21:48:30.385Z,0.25
2023-03-29T21:50:58.697Z,0.31
2023-03-29T21:53:27.091Z,0.24
2023-03-29T21:55:55.441Z,-0.09
2023-03-29T21:58:23.425Z,-0.15
2023-03-29T22:00:51.515Z,-0.39
2023-03-29T22:03:19.598Z,-0.71
2023-03-29T22:05:58.403Z,-0.96
2023-03-29T22:08:27.084Z,-0.56
2023-03-29T22:10:57.033Z,-0.58
2023-03-29T22:13:26.323Z,-0.46
2023-03-29T22:15:59.239Z,-0.42
2023-03-29T22:18:30.261Z,-0.30
2023-03-29T22:20:59.610Z,-0.46
2023-03-29T22:23:27.796Z,-0.32
2023-03-29T22:25:55.709Z,-0.19
2023-03-29T22:28:23.618Z,-0.16
2023-03-29T22:30:51.520Z,-0.10
2023-03-29T22:33:19.397Z,-0.27
2023-03-29T22:35:47.311Z,-0.41
2023-03-29T22:38:16.603Z,-0.32
2023-03-29T22:40:44.504Z,-0.35
2023-03-29T22:43:12.410Z,-0.44
2023-03-29T22:45:40.634Z,-0.19
2023-03-29T22:48:08.595Z,-0.33
2023-03-29T22:50:36.730Z,-0.66
2023-03-29T22:53:04.933Z,-0.40
2023-03-29T22:55:34.268Z,-0.31
2023-03-29T22:58:02.199Z,-0.41
2023-03-29T23:00:30.206Z,-0.88
2023-03-29T23:02:58.357Z,-1.19
2023-03-29T23:05:26.454Z,-1.46
2023-03-29T23:07:55.810Z,-1.42
2023-03-29T23:10:28.732Z,-1.37
2023-03-29T23:13:08.611Z,-1.45
2023-03-29T23:15:37.844Z,-1.66
2023-03-29T23:18:06.669Z,-1.63
2023-03-29T23:20:34.572Z,-1.65
2023-03-29T23:23:02.563Z,-1.58
2023-03-29T23:25:30.606Z,-1.64
2023-03-29T23:27:59.929Z,-1.64
2023-03-29T23:30:29.695Z,-1.65
2023-03-29T23:32:58.255Z,-1.53
2023-03-29T23:35:26.353Z,-1.47
2023-03-29T23:37:54.271Z,-1.36
2023-03-29T23:40:22.274Z,-1.40
2023-03-29T23:42:50.173Z,-1.54
2023-03-29T23:45:20.205Z,-1.09
2023-03-29T23:47:48.412Z,-0.95
2023-03-29T23:50:16.854Z,-1.08
2023-03-29T23:52:46.677Z,-1.35
2023-03-29T23:55:15.670Z,-1.10
2023-03-29T23:57:44.121Z,-0.97
